Time;durP1;ratioP1;P1;durP2;ratioP2;P2;SDS_P1;SDS_P2;PMS_P1;PMS_P2;Temp;Humidity;BMP_temperature;BMP_pressure;BME280_temperature;BME280_humidity;BME280_pressure;Samples;Min_cycle;Max_cycle;Signal;HPM_P1;HPM_P2
2023/05/23 00:01:53;;;;;;;6.20;5.70;;;19.00;99.90;;;;;;5037244;28;20273;-74
2023/05/23 00:04:20;;;;;;;5.30;4.90;;;18.90;99.90;;;;;;5034457;28;20206;-74
2023/05/23 00:06:49;;;;;;;5.63;5.15;;;18.80;99.90;;;;;;5040394;28;20204;-74
2023/05/23 00:09:16;;;;;;;5.80;5.30;;;18.70;99.90;;;;;;5037630;28;20230;-74
2023/05/23 00:11:44;;;;;;;5.90;5.40;;;18.70;99.90;;;;;;5038156;28;20310;-73
2023/05/23 00:14:12;;;;;;;5.75;5.25;;;18.60;99.90;;;;;;5030679;28;20702;-72
2023/05/23 00:16:41;;;;;;;5.88;5.38;;;18.60;99.90;;;;;;5032003;28;20286;-74
2023/05/23 00:19:09;;;;;;;6.07;5.57;;;18.60;99.90;;;;;;5032987;28;20904;-74
2023/05/23 00:21:36;;;;;;;5.78;5.20;;;18.60;99.90;;;;;;5035953;28;20204;-73
2023/05/23 00:24:03;;;;;;;5.35;4.85;;;18.60;99.90;;;;;;5032228;28;20222;-73
2023/05/23 00:26:30;;;;;;;5.40;4.90;;;18.60;99.90;;;;;;5037265;28;20262;-74
2023/05/23 00:28:59;;;;;;;5.53;5.03;;;18.60;99.90;;;;;;5031882;28;20252;-74
2023/05/23 00:31:26;;;;;;;5.90;5.43;;;18.60;99.90;;;;;;5029439;28;20208;-74
2023/05/23 00:33:53;;;;;;;5.20;4.80;;;18.60;99.90;;;;;;5033971;28;20223;-73
2023/05/23 00:36:21;;;;;;;5.20;4.80;;;18.70;99.90;;;;;;5040169;28;20223;-74
2023/05/23 00:38:48;;;;;;;5.43;4.90;;;18.70;99.90;;;;;;5034922;28;20199;-73
2023/05/23 00:41:17;;;;;;;5.93;5.43;;;18.70;99.90;;;;;;5038003;28;20208;-75
2023/05/23 00:43:44;;;;;;;4.90;4.50;;;18.70;99.90;;;;;;5038143;28;20272;-74
2023/05/23 00:46:12;;;;;;;5.13;4.63;;;18.70;99.90;;;;;;5038191;28;20791;-75
2023/05/23 00:48:39;;;;;;;4.90;4.50;;;18.70;99.90;;;;;;5032697;28;20788;-73
2023/05/23 00:51:07;;;;;;;5.32;4.93;;;18.70;99.90;;;;;;5039516;28;20256;-74
2023/05/23 00:53:34;;;;;;;5.28;4.88;;;18.70;99.90;;;;;;5036440;28;20227;-72
2023/05/23 00:56:02;;;;;;;5.75;5.25;;;18.70;99.90;;;;;;5032619;28;20913;-74
2023/05/23 00:58:29;;;;;;;4.70;4.32;;;18.60;99.90;;;;;;5033339;28;20204;-73
2023/05/23 01:00:56;;;;;;;5.43;5.03;;;18.60;99.90;;;;;;5037064;28;20202;-74
2023/05/23 01:03:27;;;;;;;5.70;5.20;;;18.60;99.90;;;;;;5036520;28;20238;-74
2023/05/23 01:05:54;;;;;;;5.18;4.68;;;18.60;99.90;;;;;;5034587;28;20971;-73
2023/05/23 01:08:21;;;;;;;5.55;5.05;;;18.50;99.90;;;;;;5030190;28;20528;-73
2023/05/23 01:10:49;;;;;;;6.00;5.22;;;18.40;99.90;;;;;;5031387;28;20242;-74
2023/05/23 01:13:23;;;;;;;6.32;5.72;;;18.40;99.90;;;;;;5031549;28;20202;-74
2023/05/23 01:15:56;;;;;;;5.95;5.45;;;18.40;99.90;;;;;;5029667;28;20234;-74
2023/05/23 01:18:37;;;;;;;5.78;5.03;;;18.30;99.90;;;;;;5032183;28;20207;-73
2023/05/23 01:21:08;;;;;;;5.05;4.65;;;18.30;99.90;;;;;;5034040;28;20234;-77
2023/05/23 01:24:16;;;;;;;5.38;4.97;;;18.30;99.90;;;;;;5029712;28;20223;-74
2023/05/23 01:27:01;;;;;;;6.18;5.57;;;18.30;99.90;;;;;;5035333;28;20222;-74
2023/05/23 01:29:32;;;;;;;5.68;5.18;;;18.30;99.90;;;;;;5034188;28;20669;-74
2023/05/23 01:32:01;;;;;;;5.10;4.70;;;18.30;99.90;;;;;;5042427;28;20570;-74
2023/05/23 01:34:30;;;;;;;5.30;4.80;;;18.20;99.90;;;;;;5036147;28;20706;-74
2023/05/23 01:36:57;;;;;;;5.57;5.07;;;18.20;99.90;;;;;;5040691;28;20198;-73
2023/05/23 01:39:24;;;;;;;4.95;4.55;;;18.20;99.90;;;;;;5036939;28;20219;-75
2023/05/23 01:41:52;;;;;;;5.32;4.82;;;18.20;99.90;;;;;;5036671;28;20210;-74
2023/05/23 01:44:20;;;;;;;4.63;4.32;;;18.20;99.90;;;;;;5038156;28;20230;-74
2023/05/23 01:46:49;;;;;;;4.70;4.30;;;18.20;99.90;;;;;;5038910;28;20196;-73
2023/05/23 01:49:18;;;;;;;5.38;4.97;;;18.10;99.90;;;;;;5034736;28;20199;-75
2023/05/23 01:51:46;;;;;;;5.72;5.22;;;18.10;99.90;;;;;;5036849;28;20207;-73
2023/05/23 01:54:15;;;;;;;6.22;5.63;;;18.10;99.90;;;;;;5034323;28;20940;-73
2023/05/23 01:56:43;;;;;;;5.80;5.20;;;18.00;99.90;;;;;;5034660;28;20200;-74
2023/05/23 01:59:10;;;;;;;5.40;5.00;;;18.00;99.90;;;;;;5032872;28;20234;-72
2023/05/23 02:01:38;;;;;;;5.45;4.85;;;18.00;99.90;;;;;;5028795;28;20679;-73
2023/05/23 02:04:06;;;;;;;5.53;5.03;;;17.90;99.90;;;;;;5028948;28;20196;-74
2023/05/23 02:06:33;;;;;;;6.13;4.80;;;18.00;99.90;;;;;;5032009;28;20207;-73
2023/05/23 02:09:00;;;;;;;5.75;5.25;;;17.90;99.90;;;;;;5031958;28;20309;-73
2023/05/23 02:11:27;;;;;;;5.20;4.70;;;17.90;99.90;;;;;;5031908;28;20281;-74
2023/05/23 02:13:54;;;;;;;5.18;4.78;;;17.90;99.90;;;;;;5032116;28;20866;-73
2023/05/23 02:16:22;;;;;;;5.07;4.68;;;17.90;99.90;;;;;;5034537;28;20227;-73
2023/05/23 02:18:51;;;;;;;4.78;4.40;;;17.90;99.90;;;;;;5033548;28;20203;-74
2023/05/23 02:21:19;;;;;;;5.60;5.10;;;17.90;99.90;;;;;;5030154;28;20211;-74
2023/05/23 02:23:46;;;;;;;5.07;4.68;;;18.00;99.90;;;;;;5033636;28;20199;-74
2023/05/23 02:26:13;;;;;;;5.00;4.60;;;18.00;99.90;;;;;;5033343;28;20288;-73
2023/05/23 02:28:40;;;;;;;5.15;4.75;;;18.00;99.90;;;;;;5032026;28;20196;-74
2023/05/23 02:31:07;;;;;;;5.13;4.72;;;18.00;99.90;;;;;;5037122;28;20302;-73
2023/05/23 02:33:34;;;;;;;5.15;4.72;;;18.00;99.90;;;;;;5035238;28;20230;-73
2023/05/23 02:36:02;;;;;;;5.10;4.68;;;18.00;99.90;;;;;;5034481;28;20219;-74
2023/05/23 02:38:30;;;;;;;4.55;4.25;;;18.00;99.90;;;;;;5034448;28;20233;-74
2023/05/23 02:40:57;;;;;;;4.72;4.32;;;17.90;99.90;;;;;;5034305;28;20211;-73
2023/05/23 02:43:24;;;;;;;5.25;4.85;;;17.90;99.90;;;;;;5035531;28;20250;-74
2023/05/23 02:45:51;;;;;;;5.30;4.90;;;17.90;99.90;;;;;;5034515;28;20289;-73
2023/05/23 02:48:18;;;;;;;5.40;4.90;;;17.90;99.90;;;;;;5035930;28;20203;-74
2023/05/23 02:50:45;;;;;;;6.35;5.32;;;17.80;99.90;;;;;;5037920;28;22087;-73
2023/05/23 02:53:12;;;;;;;5.60;5.10;;;17.70;99.90;;;;;;5041109;28;20231;-73
2023/05/23 02:55:41;;;;;;;5.70;5.30;;;17.60;99.90;;;;;;5034377;28;20289;-73
2023/05/23 02:58:08;;;;;;;5.72;5.22;;;17.60;99.90;;;;;;5035269;28;20229;-74
2023/05/23 03:00:36;;;;;;;5.10;4.60;;;17.60;99.90;;;;;;5035574;28;20560;-74
2023/05/23 03:03:03;;;;;;;5.47;5.07;;;17.60;99.90;;;;;;5032688;28;20224;-74
2023/05/23 03:05:30;;;;;;;5.03;4.63;;;17.60;99.90;;;;;;5031470;28;20257;-74
2023/05/23 03:07:57;;;;;;;5.50;5.10;;;17.60;99.90;;;;;;5036050;28;20195;-74
2023/05/23 03:10:24;;;;;;;6.82;5.30;;;17.60;99.90;;;;;;5032344;28;20207;-74
2023/05/23 03:12:52;;;;;;;6.00;5.50;;;17.50;99.90;;;;;;5034272;28;20899;-74
2023/05/23 03:15:20;;;;;;;5.63;5.22;;;17.50;99.90;;;;;;5035915;28;20250;-75
2023/05/23 03:17:47;;;;;;;5.13;4.72;;;17.50;99.90;;;;;;5034551;28;20435;-75
2023/05/23 03:20:13;;;;;;;5.43;4.93;;;17.40;99.90;;;;;;5036404;28;20220;-74
2023/05/23 03:22:42;;;;;;;5.78;5.28;;;17.40;99.90;;;;;;5033268;28;20195;-75
2023/05/23 03:25:09;;;;;;;5.60;5.20;;;17.40;99.90;;;;;;5036513;28;20223;-74
2023/05/23 03:27:36;;;;;;;5.82;5.28;;;17.40;99.90;;;;;;5036836;28;20208;-74
2023/05/23 03:30:06;;;;;;;5.53;5.07;;;17.30;99.90;;;;;;5037723;28;20265;-75
2023/05/23 03:32:33;;;;;;;5.13;4.72;;;17.30;99.90;;;;;;5036552;28;20196;-74
2023/05/23 03:35:00;;;;;;;4.82;4.43;;;17.30;99.90;;;;;;5037802;28;20224;-73
2023/05/23 03:37:27;;;;;;;6.05;5.55;;;17.30;99.90;;;;;;5038353;28;20228;-74
2023/05/23 03:39:53;;;;;;;7.28;5.75;;;17.30;99.90;;;;;;5037251;28;20262;-74
2023/05/23 03:42:20;;;;;;;5.95;5.40;;;17.30;99.90;;;;;;5034969;28;20230;-74
2023/05/23 03:44:47;;;;;;;5.78;5.38;;;17.30;99.90;;;;;;5040831;28;20239;-73
2023/05/23 03:47:16;;;;;;;6.15;5.65;;;17.20;99.90;;;;;;5037703;28;20207;-73
2023/05/23 03:49:44;;;;;;;5.80;5.25;;;17.20;99.90;;;;;;5037017;28;20564;-74
2023/05/23 03:52:11;;;;;;;5.40;5.00;;;17.10;99.90;;;;;;5031795;28;20204;-74
2023/05/23 03:54:38;;;;;;;5.53;5.03;;;17.20;99.90;;;;;;5038317;28;20215;-74
2023/05/23 03:57:05;;;;;;;5.30;4.80;;;17.10;99.90;;;;;;5038422;28;20250;-74
2023/05/23 03:59:32;;;;;;;5.07;4.68;;;17.10;99.90;;;;;;5031093;28;20199;-74
2023/05/23 04:01:59;;;;;;;5.32;4.93;;;17.20;99.90;;;;;;5037133;28;20227;-74
2023/05/23 04:04:29;;;;;;;5.60;5.18;;;17.20;99.90;;;;;;5040533;28;20227;-74
2023/05/23 04:06:56;;;;;;;5.13;4.72;;;17.30;99.90;;;;;;5035701;28;20289;-74
2023/05/23 04:09:24;;;;;;;5.25;4.80;;;17.30;99.90;;;;;;5034558;28;20203;-74
2023/05/23 04:11:52;;;;;;;6.05;5.47;;;17.30;99.90;;;;;;5034467;28;20231;-74
2023/05/23 04:14:21;;;;;;;5.40;4.90;;;17.40;99.90;;;;;;5036583;28;20701;-75
2023/05/23 04:16:48;;;;;;;5.63;5.13;;;17.40;99.90;;;;;;5041329;28;20199;-73
2023/05/23 04:19:15;;;;;;;6.03;5.47;;;17.40;99.90;;;;;;5039609;28;20938;-73
2023/05/23 04:21:43;;;;;;;5.95;5.45;;;17.40;99.90;;;;;;5032603;28;20203;-73
2023/05/23 04:24:11;;;;;;;6.35;5.75;;;17.30;99.90;;;;;;5039855;28;20207;-73
2023/05/23 04:26:38;;;;;;;6.10;5.60;;;17.30;99.90;;;;;;5039225;28;20199;-73
2023/05/23 04:29:06;;;;;;;5.75;5.25;;;17.20;99.90;;;;;;5035054;28;20677;-73
2023/05/23 04:31:34;;;;;;;5.40;5.00;;;17.20;99.90;;;;;;5039527;28;20192;-73
2023/05/23 04:34:01;;;;;;;6.00;5.40;;;17.20;99.90;;;;;;5037086;28;20334;-73
2023/05/23 04:36:29;;;;;;;5.65;5.22;;;17.30;99.90;;;;;;5040523;28;20227;-74
2023/05/23 04:38:57;;;;;;;5.57;5.18;;;17.30;99.90;;;;;;5037150;28;20199;-74
2023/05/23 04:41:24;;;;;;;5.47;5.07;;;17.30;99.90;;;;;;5038492;28;20230;-73
2023/05/23 04:43:53;;;;;;;6.00;5.50;;;17.30;99.90;;;;;;5035913;28;20199;-74
2023/05/23 04:46:25;;;;;;;5.88;5.38;;;17.30;99.90;;;;;;5034864;28;20277;-74
2023/05/23 04:48:52;;;;;;;6.00;5.50;;;17.40;99.90;;;;;;5034059;28;20722;-74
2023/05/23 04:51:20;;;;;;;6.15;5.65;;;17.40;99.90;;;;;;5040089;28;20275;-73
2023/05/23 04:53:47;;;;;;;5.60;5.10;;;17.40;99.90;;;;;;5035004;28;20282;-74
2023/05/23 04:56:19;;;;;;;5.47;5.07;;;17.40;99.90;;;;;;5037519;28;20242;-73
2023/05/23 04:58:46;;;;;;;5.85;5.35;;;17.40;99.90;;;;;;5036178;28;20235;-74
2023/05/23 05:01:14;;;;;;;6.05;5.55;;;17.40;99.90;;;;;;5038248;28;20207;-74
2023/05/23 05:03:41;;;;;;;6.85;5.95;;;17.40;99.90;;;;;;5039913;28;20204;-74
2023/05/23 05:06:08;;;;;;;6.93;5.88;;;17.30;99.90;;;;;;5033139;28;20219;-74
2023/05/23 05:08:36;;;;;;;6.43;5.82;;;17.30;99.90;;;;;;5032574;28;20375;-73
2023/05/23 05:11:03;;;;;;;6.50;5.90;;;17.30;99.90;;;;;;5046975;28;20198;-74
2023/05/23 05:13:31;;;;;;;6.68;6.07;;;17.20;99.90;;;;;;5040559;28;20221;-73
2023/05/23 05:15:58;;;;;;;6.00;5.45;;;17.30;99.90;;;;;;5048842;28;20269;-74
2023/05/23 05:18:26;;;;;;;5.93;5.40;;;17.30;99.90;;;;;;5045315;28;20211;-73
2023/05/23 05:20:54;;;;;;;6.22;5.72;;;17.40;99.90;;;;;;5039293;28;20267;-74
2023/05/23 05:23:27;;;;;;;5.82;5.30;;;17.60;99.90;;;;;;5042286;28;20210;-74
2023/05/23 05:25:55;;;;;;;5.10;4.70;;;17.90;99.90;;;;;;5041903;28;20231;-74
2023/05/23 05:28:22;;;;;;;7.82;6.05;;;18.00;99.90;;;;;;5039873;28;20330;-74
2023/05/23 05:30:52;;;;;;;6.68;6.00;;;18.20;99.90;;;;;;5035580;28;20900;-74
2023/05/23 05:33:22;;;;;;;6.95;6.45;;;18.20;99.90;;;;;;5041291;28;20270;-74
2023/05/23 05:35:49;;;;;;;6.10;5.60;;;18.10;99.90;;;;;;5040735;28;20215;-73
2023/05/23 05:38:15;;;;;;;5.85;5.35;;;18.10;99.90;;;;;;5040875;28;20223;-74
2023/05/23 05:40:42;;;;;;;5.45;4.97;;;18.20;99.90;;;;;;5034768;28;20238;-74
2023/05/23 05:43:10;;;;;;;4.93;4.53;;;18.30;99.90;;;;;;5040712;28;20238;-74
2023/05/23 05:45:37;;;;;;;5.78;5.28;;;18.40;99.90;;;;;;5044004;28;20286;-74
2023/05/23 05:48:05;;;;;;;6.78;5.32;;;18.50;99.90;;;;;;5037299;28;20231;-74
2023/05/23 05:50:32;;;;;;;6.10;5.60;;;18.50;99.90;;;;;;5031321;28;20203;-74
2023/05/23 05:52:59;;;;;;;5.50;5.00;;;18.60;99.90;;;;;;5028466;28;20195;-74
2023/05/23 05:55:26;;;;;;;5.90;5.40;;;18.60;99.90;;;;;;5034113;28;20250;-75
2023/05/23 05:57:53;;;;;;;5.95;5.35;;;18.70;99.90;;;;;;5034429;28;20246;-74
2023/05/23 06:00:21;;;;;;;5.30;4.80;;;18.80;99.90;;;;;;5035122;28;20218;-75
2023/05/23 06:02:50;;;;;;;6.05;5.55;;;18.90;99.90;;;;;;5035794;28;20223;-74
2023/05/23 06:05:18;;;;;;;6.57;5.97;;;18.80;99.90;;;;;;5037891;28;20223;-75
2023/05/23 06:07:48;;;;;;;6.13;5.63;;;18.90;99.90;;;;;;5038892;28;20633;-74
2023/05/23 06:10:15;;;;;;;6.90;6.03;;;19.00;99.90;;;;;;5035926;28;20753;-74
2023/05/23 06:12:42;;;;;;;6.43;5.82;;;19.10;99.90;;;;;;5034747;28;20235;-74
2023/05/23 06:15:09;;;;;;;7.03;5.53;;;19.30;99.90;;;;;;5038438;28;20272;-73
2023/05/23 06:17:36;;;;;;;6.05;5.55;;;19.30;99.90;;;;;;5041555;28;20228;-74
2023/05/23 06:20:04;;;;;;;6.00;5.50;;;19.30;99.90;;;;;;5031906;28;20681;-74
2023/05/23 06:22:32;;;;;;;6.88;6.18;;;19.30;99.90;;;;;;5034439;28;20282;-73
2023/05/23 06:24:59;;;;;;;6.07;5.57;;;19.30;99.90;;;;;;5033449;28;20242;-74
2023/05/23 06:27:26;;;;;;;7.85;5.18;;;19.30;99.90;;;;;;5035932;28;20208;-74
2023/05/23 06:29:53;;;;;;;6.72;6.07;;;19.60;99.90;;;;;;5033456;28;20222;-74
2023/05/23 06:32:20;;;;;;;6.43;5.82;;;19.70;99.90;;;;;;5035351;28;20701;-74
2023/05/23 06:34:47;;;;;;;6.60;5.80;;;19.90;99.90;;;;;;5032014;28;20227;-74
2023/05/23 06:37:15;;;;;;;6.30;5.80;;;20.00;99.90;;;;;;5036153;28;20204;-74
2023/05/23 06:39:43;;;;;;;5.97;5.47;;;20.40;99.90;;;;;;5030898;28;20214;-74
2023/05/23 06:42:10;;;;;;;6.63;6.05;;;20.60;99.90;;;;;;5022243;28;20504;-74
2023/05/23 06:44:37;;;;;;;5.85;5.35;;;20.60;99.90;;;;;;5025894;28;20223;-74
2023/05/23 06:47:04;;;;;;;7.00;5.95;;;20.30;99.90;;;;;;5026897;28;20223;-75
2023/05/23 06:49:31;;;;;;;6.82;6.22;;;20.40;99.90;;;;;;5022119;28;20760;-72
2023/05/23 06:51:58;;;;;;;7.97;6.85;;;20.50;99.90;;;;;;5029168;28;20624;-75
2023/05/23 06:54:25;;;;;;;7.03;6.32;;;20.60;99.90;;;;;;5029096;28;20231;-74
2023/05/23 06:56:53;;;;;;;6.82;6.22;;;20.70;99.90;;;;;;5027386;28;20251;-75
2023/05/23 06:59:20;;;;;;;8.00;6.57;;;20.90;99.90;;;;;;5031938;28;20198;-75
2023/05/23 07:01:47;;;;;;;6.85;6.25;;;21.10;99.90;;;;;;5034425;28;20249;-75
2023/05/23 07:04:14;;;;;;;7.10;6.40;;;21.10;99.90;;;;;;5031346;28;20227;-74
2023/05/23 07:06:41;;;;;;;6.90;6.30;;;21.20;99.90;;;;;;5020753;28;20206;-75
2023/05/23 07:09:10;;;;;;;7.65;6.68;;;21.40;99.90;;;;;;5027771;28;20192;-74
2023/05/23 07:11:38;;;;;;;6.28;5.80;;;21.50;99.90;;;;;;5030953;28;20203;-74
2023/05/23 07:14:06;;;;;;;6.63;6.00;;;21.50;99.90;;;;;;5033608;28;20261;-73
2023/05/23 07:16:33;;;;;;;6.68;5.97;;;21.60;99.90;;;;;;5029894;28;20273;-72
2023/05/23 07:19:04;;;;;;;6.03;5.43;;;21.70;99.90;;;;;;5032778;28;20261;-73
2023/05/23 07:21:31;;;;;;;6.25;5.70;;;21.80;99.90;;;;;;5031230;28;20401;-75
2023/05/23 07:23:58;;;;;;;6.22;5.72;;;22.00;99.90;;;;;;5033110;28;20820;-73
2023/05/23 07:26:26;;;;;;;6.25;5.65;;;22.00;99.90;;;;;;5030192;28;20268;-76
2023/05/23 07:28:53;;;;;;;6.60;5.95;;;22.00;99.90;;;;;;5032604;28;20212;-74
2023/05/23 07:31:21;;;;;;;6.40;5.80;;;22.10;99.90;;;;;;5027568;28;20207;-73
2023/05/23 07:33:48;;;;;;;6.22;5.65;;;22.20;99.90;;;;;;5031929;28;20196;-74
2023/05/23 07:36:15;;;;;;;6.60;6.00;;;22.30;99.90;;;;;;5033088;28;20214;-74
2023/05/23 07:38:42;;;;;;;6.10;5.55;;;22.40;99.90;;;;;;5027586;28;20231;-74
2023/05/23 07:41:09;;;;;;;7.00;6.22;;;22.50;99.90;;;;;;5019586;28;20203;-75
2023/05/23 07:43:36;;;;;;;7.20;6.25;;;22.70;99.90;;;;;;5025928;28;20203;-74
2023/05/23 07:46:03;;;;;;;6.13;5.63;;;22.90;99.90;;;;;;5026440;28;20309;-75
2023/05/23 07:48:32;;;;;;;7.05;6.35;;;23.00;99.90;;;;;;5029700;28;20459;-74
2023/05/23 07:50:59;;;;;;;6.22;5.72;;;23.10;99.90;;;;;;5029493;28;20222;-74
2023/05/23 07:53:26;;;;;;;6.57;5.93;;;23.10;99.90;;;;;;5032920;28;20235;-74
2023/05/23 07:55:53;;;;;;;6.32;5.80;;;23.10;99.90;;;;;;5027750;28;20510;-74
2023/05/23 07:58:21;;;;;;;6.35;5.75;;;23.10;99.90;;;;;;5032629;28;20739;-80
2023/05/23 08:00:49;;;;;;;6.88;6.18;;;23.20;99.90;;;;;;5035515;28;20210;-81
2023/05/23 08:03:17;;;;;;;7.32;6.40;;;23.40;99.90;;;;;;5039750;28;20199;-76
2023/05/23 08:05:46;;;;;;;6.70;6.10;;;23.50;99.90;;;;;;5029879;28;20718;-77
2023/05/23 08:08:14;;;;;;;7.28;6.57;;;23.50;99.90;;;;;;5047324;28;20195;-82
2023/05/23 08:10:41;;;;;;;7.60;5.75;;;23.60;99.90;;;;;;5058253;28;20183;-82
2023/05/23 08:13:10;;;;;;;7.55;6.15;;;23.60;99.90;;;;;;5053115;28;20214;-78
2023/05/23 08:15:37;;;;;;;6.47;5.93;;;23.70;99.90;;;;;;5027367;28;20235;-76
2023/05/23 08:18:05;;;;;;;6.15;5.55;;;23.80;99.90;;;;;;5027973;28;20622;-76
2023/05/23 08:20:34;;;;;;;6.85;6.05;;;24.00;99.90;;;;;;5028837;28;20202;-75
2023/05/23 08:23:02;;;;;;;6.80;6.10;;;24.00;99.90;;;;;;5031662;28;20204;-76
2023/05/23 08:25:34;;;;;;;5.65;5.25;;;23.90;99.90;;;;;;5031531;28;20913;-77
2023/05/23 08:28:01;;;;;;;6.03;5.43;;;23.90;99.90;;;;;;5033370;28;20729;-75
2023/05/23 08:30:29;;;;;;;6.00;5.45;;;24.00;99.90;;;;;;5031831;28;20202;-76
2023/05/23 08:32:57;;;;;;;5.97;5.47;;;24.10;99.90;;;;;;5030245;28;20207;-77
2023/05/23 08:35:32;;;;;;;6.32;5.78;;;24.10;99.90;;;;;;5030160;28;20587;-76
2023/05/23 08:38:23;;;;;;;6.03;5.45;;;24.20;99.90;;;;;;5027620;28;20207;-75
2023/05/23 08:40:56;;;;;;;6.72;6.13;;;24.40;99.90;;;;;;5021620;28;20223;-80
2023/05/23 08:44:06;;;;;;;6.63;5.95;;;24.40;99.90;;;;;;5034867;28;20291;-79
2023/05/23 08:46:46;;;;;;;9.32;6.40;;;24.40;99.90;;;;;;5044495;28;20184;-79
2023/05/23 08:49:17;;;;;;;6.68;6.07;;;24.40;99.90;;;;;;5034609;28;20226;-80
2023/05/23 08:54:31;;;;;;;6.35;5.78;;;24.50;99.90;;;;;;5023755;28;20227;-79
2023/05/23 08:56:58;;;;;;;6.28;5.68;;;24.70;99.90;;;;;;5023343;28;20632;-76
2023/05/23 08:59:27;;;;;;;6.38;5.78;;;24.90;99.90;;;;;;5024281;28;20207;-78
2023/05/23 09:01:56;;;;;;;8.55;6.43;;;25.00;99.90;;;;;;5027534;28;20385;-76
2023/05/23 09:04:23;;;;;;;7.20;6.38;;;25.00;99.90;;;;;;5022150;28;20209;-76
2023/05/23 09:06:51;;;;;;;6.95;6.25;;;24.80;99.90;;;;;;5026018;28;20230;-78
2023/05/23 09:09:18;;;;;;;6.15;5.53;;;24.70;99.90;;;;;;5027284;28;20215;-79
2023/05/23 09:11:47;;;;;;;6.00;5.40;;;24.80;99.90;;;;;;5027519;28;20238;-76
2023/05/23 09:14:16;;;;;;;6.50;5.75;;;25.10;99.90;;;;;;5023970;28;20286;-77
2023/05/23 09:16:46;;;;;;;7.00;6.30;;;25.20;99.90;;;;;;5029950;28;20779;-76
2023/05/23 09:19:14;;;;;;;6.63;6.03;;;25.40;99.90;;;;;;5024439;28;20776;-79
2023/05/23 09:21:43;;;;;;;6.55;5.97;;;25.50;99.90;;;;;;5023186;28;20298;-79
2023/05/23 09:24:11;;;;;;;6.43;5.82;;;25.70;99.90;;;;;;5023033;28;20692;-80
2023/05/23 09:26:38;;;;;;;5.82;5.35;;;25.80;99.90;;;;;;5022881;28;20294;-75
2023/05/23 09:29:07;;;;;;;5.72;5.22;;;25.90;99.90;;;;;;5020792;28;20293;-78
2023/05/23 09:31:34;;;;;;;6.45;5.85;;;26.20;99.90;;;;;;5023361;28;20511;-76
2023/05/23 09:34:01;;;;;;;5.78;5.28;;;26.40;99.90;;;;;;5021906;28;20207;-78
2023/05/23 09:36:31;;;;;;;6.80;5.95;;;26.40;99.90;;;;;;5023054;28;20219;-78
2023/05/23 09:39:04;;;;;;;6.38;5.88;;;26.50;99.90;;;;;;5019487;28;20203;-76
2023/05/23 09:41:33;;;;;;;7.00;6.40;;;26.50;99.90;;;;;;5022445;28;20220;-77
2023/05/23 09:44:08;;;;;;;10.23;6.22;;;26.60;99.90;;;;;;5023499;28;20200;-78
2023/05/23 09:46:39;;;;;;;5.45;4.95;;;26.60;99.90;;;;;;5024331;28;20261;-82
2023/05/23 09:49:17;;;;;;;6.85;5.82;;;26.80;99.90;;;;;;5019749;28;20665;-78
2023/05/23 09:51:56;;;;;;;5.93;5.43;;;27.10;99.90;;;;;;5020387;28;20203;-77
2023/05/23 09:54:23;;;;;;;5.80;5.30;;;27.00;99.90;;;;;;5030360;28;20863;-78
2023/05/23 09:56:54;;;;;;;6.80;5.50;;;26.90;99.90;;;;;;5023815;28;20324;-78
2023/05/23 09:59:24;;;;;;;7.47;6.30;;;26.80;99.90;;;;;;5024398;28;20260;-79
2023/05/23 10:01:54;;;;;;;6.78;6.13;;;26.80;99.90;;;;;;5026044;28;20198;-85
2023/05/23 10:04:23;;;;;;;5.60;5.10;;;26.80;99.90;;;;;;5022710;28;20231;-78
2023/05/23 10:06:53;;;;;;;6.38;5.88;;;27.10;99.90;;;;;;5023056;28;20621;-78
2023/05/23 10:09:23;;;;;;;6.15;5.63;;;27.30;99.90;;;;;;5027450;28;20257;-77
2023/05/23 10:12:45;;;;;;;5.85;5.28;;;27.40;99.90;;;;;;5024932;28;20274;-81
2023/05/23 10:15:16;;;;;;;5.20;4.70;;;27.40;99.90;;;;;;5028919;28;20297;-78
2023/05/23 10:17:56;;;;;;;5.78;5.28;;;27.40;99.90;;;;;;5026707;28;20277;-82
2023/05/23 10:20:28;;;;;;;7.00;4.97;;;27.80;99.90;;;;;;5027619;28;20203;-78
2023/05/23 10:22:56;;;;;;;5.50;5.00;;;28.00;99.90;;;;;;5024627;28;20196;-78
2023/05/23 10:25:23;;;;;;;5.65;5.10;;;28.00;99.90;;;;;;5041802;28;20246;-84
2023/05/23 10:27:57;;;;;;;5.47;4.97;;;28.00;99.90;;;;;;5039450;28;20245;-77
2023/05/23 10:30:26;;;;;;;6.40;4.97;;;28.00;99.90;;;;;;5034612;28;20195;-79
2023/05/23 10:32:54;;;;;;;9.60;4.72;;;28.00;99.90;;;;;;5031169;28;20250;-78
2023/05/23 10:35:25;;;;;;;5.00;4.50;;;28.10;99.90;;;;;;5045379;28;20253;-80
2023/05/23 10:37:59;;;;;;;5.28;4.78;;;28.30;99.90;;;;;;5030972;28;20249;-79
2023/05/23 10:40:37;;;;;;;5.13;4.70;;;28.40;99.90;;;;;;5027096;28;20242;-81
2023/05/23 10:43:13;;;;;;;4.93;4.53;;;28.40;99.90;;;;;;5028292;28;20981;-82
2023/05/23 10:45:42;;;;;;;6.90;4.53;;;28.40;99.90;;;;;;5027736;28;20262;-78
2023/05/23 10:48:21;;;;;;;4.97;4.50;;;28.30;99.90;;;;;;5032635;28;20234;-78
2023/05/23 10:51:02;;;;;;;5.07;4.57;;;28.30;99.90;;;;;;5025139;28;20263;-83
2023/05/23 10:53:30;;;;;;;4.72;4.25;;;28.50;99.90;;;;;;5020604;28;20199;-80
2023/05/23 10:55:57;;;;;;;4.38;3.95;;;28.60;99.90;;;;;;5023323;28;20234;-77
2023/05/23 10:58:24;;;;;;;4.72;4.32;;;28.80;99.90;;;;;;5019687;28;21303;-77
2023/05/23 11:00:54;;;;;;;4.47;4.07;;;28.90;99.90;;;;;;5018936;28;20199;-81
2023/05/23 11:03:32;;;;;;;4.72;4.25;;;29.10;99.90;;;;;;5020391;28;20839;-79
2023/05/23 11:06:00;;;;;;;5.10;3.97;;;28.90;99.90;;;;;;5019372;28;20222;-83
2023/05/23 11:08:28;;;;;;;4.60;4.20;;;28.90;99.90;;;;;;5021112;28;20435;-79
2023/05/23 11:10:58;;;;;;;4.78;4.32;;;29.10;99.90;;;;;;5018239;28;20290;-82
2023/05/23 11:13:25;;;;;;;5.93;4.35;;;29.00;99.90;;;;;;5026759;28;20286;-80
2023/05/23 11:15:54;;;;;;;5.38;4.10;;;29.00;99.90;;;;;;5018073;28;20211;-79
2023/05/23 11:18:24;;;;;;;4.07;3.78;;;28.60;99.90;;;;;;5019991;28;20247;-78
2023/05/23 11:20:53;;;;;;;4.93;3.63;;;28.10;99.90;;;;;;5019863;28;20200;-82
2023/05/23 11:23:20;;;;;;;4.28;3.90;;;28.00;99.90;;;;;;5023293;28;20207;-81
2023/05/23 11:25:50;;;;;;;4.50;4.10;;;28.30;99.90;;;;;;5017968;28;20952;-78
2023/05/23 11:28:17;;;;;;;5.07;4.07;;;28.60;99.90;;;;;;5017347;28;20218;-78
2023/05/23 11:30:47;;;;;;;5.53;5.03;;;28.70;99.90;;;;;;5016817;28;20298;-81
2023/05/23 11:33:17;;;;;;;5.07;4.55;;;28.60;99.90;;;;;;5019665;28;20286;-78
2023/05/23 11:35:47;;;;;;;4.88;4.40;;;28.50;99.90;;;;;;5019273;28;20307;-77
2023/05/23 11:38:15;;;;;;;5.10;4.65;;;28.50;99.90;;;;;;5020370;28;20791;-77
2023/05/23 11:40:43;;;;;;;4.80;4.40;;;28.70;99.90;;;;;;5020214;28;20290;-82
2023/05/23 11:43:13;;;;;;;4.80;4.40;;;28.80;99.90;;;;;;5025517;28;20772;-82
2023/05/23 11:45:41;;;;;;;4.75;4.35;;;29.10;99.90;;;;;;5020378;28;20234;-79
2023/05/23 11:48:10;;;;;;;5.38;4.50;;;29.40;99.90;;;;;;5019419;28;20191;-79
2023/05/23 11:50:46;;;;;;;4.55;4.13;;;29.50;99.90;;;;;;5021531;28;20268;-84
2023/05/23 11:53:15;;;;;;;5.72;4.32;;;29.70;99.90;;;;;;5023875;28;20640;-83
2023/05/23 11:55:49;;;;;;;4.47;4.07;;;29.90;99.90;;;;;;5020529;28;20219;-83
2023/05/23 11:58:16;;;;;;;6.47;4.25;;;29.80;99.90;;;;;;5022245;28;20689;-79
2023/05/23 12:00:44;;;;;;;4.18;3.78;;;29.10;99.90;;;;;;5026043;28;20584;-79
2023/05/23 12:03:11;;;;;;;5.07;4.38;;;28.50;99.90;;;;;;5026767;28;20242;-83
2023/05/23 12:05:38;;;;;;;4.40;4.00;;;28.00;99.90;;;;;;5029132;28;20308;-79
2023/05/23 12:08:07;;;;;;;5.07;4.15;;;27.50;99.90;;;;;;5027889;28;20278;-80
2023/05/23 12:10:33;;;;;;;4.05;3.60;;;27.00;99.90;;;;;;5023036;28;20281;-81
2023/05/23 12:13:01;;;;;;;3.67;3.38;;;26.60;99.90;;;;;;5025938;28;20967;-80
2023/05/23 12:15:30;;;;;;;4.50;3.88;;;26.40;99.90;;;;;;5026560;28;21097;-78
2023/05/23 12:17:57;;;;;;;5.05;3.83;;;26.20;99.90;;;;;;5021405;28;20230;-83
2023/05/23 12:20:26;;;;;;;6.07;4.32;;;26.00;99.90;;;;;;5028909;28;20790;-81
2023/05/23 12:22:54;;;;;;;4.40;4.00;;;25.90;99.90;;;;;;5022700;28;20191;-79
2023/05/23 12:25:22;;;;;;;4.88;4.43;;;25.80;99.90;;;;;;5023037;28;20243;-80
2023/05/23 12:27:49;;;;;;;4.82;4.32;;;25.50;99.90;;;;;;5020364;28;20830;-77
2023/05/23 12:30:17;;;;;;;4.95;3.70;;;25.00;99.90;;;;;;5021061;28;20242;-75
2023/05/23 12:32:45;;;;;;;4.13;3.80;;;24.60;99.90;;;;;;5027111;28;20227;-76
2023/05/23 12:35:13;;;;;;;4.60;3.70;;;24.30;99.90;;;;;;5031464;28;20223;-76
2023/05/23 12:37:41;;;;;;;4.93;4.05;;;24.10;99.90;;;;;;5028448;28;20303;-82
2023/05/23 12:40:14;;;;;;;4.28;3.88;;;23.90;99.90;;;;;;5024489;28;20265;-78
2023/05/23 12:42:52;;;;;;;4.40;4.00;;;23.70;99.90;;;;;;5029662;28;20613;-77
2023/05/23 12:45:19;;;;;;;6.18;4.40;;;23.70;99.90;;;;;;5030533;28;20241;-76
2023/05/23 12:47:46;;;;;;;5.00;4.30;;;23.50;99.90;;;;;;5026787;28;20191;-77
2023/05/23 12:50:13;;;;;;;4.93;4.47;;;23.50;99.90;;;;;;5028781;28;20994;-79
2023/05/23 12:52:40;;;;;;;5.07;4.57;;;23.30;99.90;;;;;;5028618;28;20381;-76
2023/05/23 12:55:08;;;;;;;5.20;4.50;;;23.10;99.90;;;;;;5029580;28;20350;-78
2023/05/23 12:57:36;;;;;;;4.75;4.35;;;22.80;99.90;;;;;;5033185;28;20227;-76
2023/05/23 13:00:07;;;;;;;4.43;4.03;;;22.60;99.90;;;;;;5032251;28;20254;-77